Terminal Aerodrome Forecast
Issued by NWS

Home | Current Version | Previous Version | Text Only | Print | Product List | Glossary On
Versions: 1 2 3 4 5 6 7 8 9 10 11 12 13 14 15 16
000
FTUS43 KDTX 231529 AAC
TAFMBS
TAF AMD
KMBS 231529Z 2315/2412 03008KT 6SM SHRA BR BKN040 OVC060
      TEMPO 2315/2318 2SM SHRA BR SCT025 OVC035
     FM231800 07008KT 4SM RA BR SCT008 BKN020 OVC035
     FM232000 11009KT 3SM RA BR BKN008 OVC015
     FM240200 20012G24KT 5SM -RA BR OVC006
     FM240700 24018G30KT P6SM -SHRA BKN016 OVC040=

USA.gov is the U.S. government's official web portal to all federal, state and local government web resources and services.